createdAt,value
2023-05-17T00:02:08.165Z,4.57
2023-05-17T00:04:35.102Z,4.23
2023-05-17T00:07:02.034Z,3.20
2023-05-17T00:09:29.078Z,2.60
2023-05-17T00:11:58.745Z,3.80
2023-05-17T00:14:25.905Z,3.63
2023-05-17T00:16:52.942Z,3.87
2023-05-17T00:19:20.150Z,3.70
2023-05-17T00:21:47.174Z,3.80
2023-05-17T00:24:14.092Z,2.10
2023-05-17T00:26:41.128Z,2.20
2023-05-17T00:29:08.157Z,2.80
2023-05-17T00:31:35.613Z,2.73
2023-05-17T00:34:02.545Z,2.20
2023-05-17T00:36:29.473Z,2.53
2023-05-17T00:38:56.354Z,1.47
2023-05-17T00:41:23.263Z,1.90
2023-05-17T00:43:50.201Z,1.47
2023-05-17T00:46:17.076Z,1.60
2023-05-17T00:48:44.516Z,1.80
2023-05-17T00:51:12.489Z,2.23
2023-05-17T00:53:39.741Z,1.57
2023-05-17T00:56:07.078Z,1.90
2023-05-17T00:58:34.290Z,1.53
2023-05-17T01:01:02.078Z,2.50
2023-05-17T01:03:29.243Z,1.37
2023-05-17T01:05:56.264Z,1.50
2023-05-17T01:08:23.192Z,1.50
2023-05-17T01:11:11.372Z,1.90
2023-05-17T01:13:59.173Z,2.20
2023-05-17T01:16:33.052Z,1.47
2023-05-17T01:19:17.350Z,1.90
2023-05-17T01:22:15.880Z,2.03
2023-05-17T01:24:47.798Z,1.53
2023-05-17T01:27:15.965Z,1.50
2023-05-17T01:29:44.994Z,2.53
2023-05-17T01:32:13.852Z,1.80
2023-05-17T01:34:41.872Z,1.67
2023-05-17T01:37:08.768Z,1.43
2023-05-17T01:39:36.604Z,1.53
2023-05-17T01:42:10.197Z,1.73
2023-05-17T01:44:50.700Z,1.90
2023-05-17T01:47:33.137Z,1.70
2023-05-17T01:50:01.131Z,1.57
2023-05-17T01:52:54.124Z,1.70
2023-05-17T01:55:33.085Z,1.93
2023-05-17T01:58:04.141Z,1.90
2023-05-17T02:00:31.798Z,2.67
2023-05-17T02:02:58.782Z,1.90
2023-05-17T02:05:25.787Z,2.40
2023-05-17T02:07:52.688Z,1.53
2023-05-17T02:10:19.603Z,2.20
2023-05-17T02:12:46.489Z,1.30
2023-05-17T02:15:14.015Z,1.70
2023-05-17T02:17:41.240Z,1.73
2023-05-17T02:20:09.779Z,1.80
2023-05-17T02:22:36.735Z,1.70
2023-05-17T02:25:03.712Z,1.70
2023-05-17T02:27:31.055Z,1.53
2023-05-17T02:29:59.716Z,2.13
2023-05-17T02:32:27.487Z,1.80
2023-05-17T02:34:55.070Z,1.67
2023-05-17T02:37:23.512Z,1.77
2023-05-17T02:39:50.481Z,2.17
2023-05-17T02:42:17.768Z,2.10
2023-05-17T02:44:44.789Z,1.90
2023-05-17T02:47:11.712Z,1.67
2023-05-17T02:49:38.932Z,2.03
2023-05-17T02:52:06.147Z,1.80
2023-05-17T02:54:34.028Z,1.47
2023-05-17T02:57:01.485Z,1.90
2023-05-17T02:59:28.419Z,2.40
2023-05-17T03:01:55.421Z,2.20
2023-05-17T03:04:22.496Z,2.97
2023-05-17T03:06:51.079Z,1.23
2023-05-17T03:09:19.077Z,1.93
2023-05-17T03:11:48.596Z,2.50
2023-05-17T03:14:21.107Z,2.03
2023-05-17T03:16:49.470Z,1.60
2023-05-17T03:19:17.094Z,2.27
2023-05-17T03:21:44.971Z,1.60
2023-05-17T03:24:12.623Z,1.87
2023-05-17T03:26:40.345Z,2.90
2023-05-17T03:29:09.292Z,1.90
2023-05-17T03:31:36.894Z,1.87
2023-05-17T03:34:03.893Z,2.03
2023-05-17T03:36:31.661Z,2.10
2023-05-17T03:38:58.696Z,2.03
2023-05-17T03:41:25.959Z,1.80
2023-05-17T03:43:52.985Z,2.10
2023-05-17T03:46:21.295Z,2.20
2023-05-17T03:48:49.307Z,1.90
2023-05-17T03:51:17.342Z,1.77
2023-05-17T03:53:44.507Z,1.90
2023-05-17T03:56:11.470Z,1.80
2023-05-17T03:58:38.649Z,1.90
2023-05-17T04:01:06.061Z,1.87
2023-05-17T04:03:33.893Z,2.00
2023-05-17T04:06:06.488Z,2.40
2023-05-17T04:08:35.319Z,2.07
2023-05-17T04:11:10.738Z,2.40
2023-05-17T04:13:38.109Z,2.73
2023-05-17T04:16:05.444Z,2.90
2023-05-17T04:18:36.394Z,2.53
2023-05-17T04:21:04.322Z,2.43
2023-05-17T04:23:33.624Z,2.63
2023-05-17T04:26:00.668Z,2.50
2023-05-17T04:28:29.740Z,1.97
2023-05-17T04:30:57.014Z,2.83
2023-05-17T04:33:24.996Z,3.00
2023-05-17T04:35:55.042Z,2.50
2023-05-17T04:38:23.894Z,2.17
2023-05-17T04:40:51.644Z,3.00
2023-05-17T04:43:18.985Z,2.10
2023-05-17T04:45:46.899Z,2.80
2023-05-17T04:48:16.625Z,2.03
2023-05-17T04:50:47.430Z,3.20
2023-05-17T04:53:16.028Z,2.87
2023-05-17T04:55:43.178Z,2.50
2023-05-17T04:58:10.392Z,2.33
2023-05-17T05:00:38.327Z,3.03
2023-05-17T05:03:07.809Z,2.80
2023-05-17T05:05:35.918Z,2.97
2023-05-17T05:08:02.931Z,3.40
2023-05-17T05:10:30.731Z,2.70
2023-05-17T05:12:58.541Z,3.20
2023-05-17T05:15:25.627Z,3.10
2023-05-17T05:17:56.724Z,3.20
2023-05-17T05:20:25.863Z,3.27
2023-05-17T05:22:57.633Z,2.80
2023-05-17T05:25:24.970Z,2.60
2023-05-17T05:27:51.963Z,2.93
2023-05-17T05:30:22.662Z,2.43
2023-05-17T05:32:53.260Z,2.10
2023-05-17T05:35:20.760Z,3.10
2023-05-17T05:37:47.692Z,2.77
2023-05-17T05:40:15.346Z,3.23
2023-05-17T05:42:42.508Z,3.07
2023-05-17T05:45:10.692Z,3.30
2023-05-17T05:47:38.476Z,2.83
2023-05-17T05:50:07.034Z,3.13
2023-05-17T05:52:35.391Z,2.90
2023-05-17T05:55:02.352Z,3.67
2023-05-17T05:57:29.477Z,4.43
2023-05-17T05:59:56.367Z,4.43
2023-05-17T06:02:24.177Z,3.93
2023-05-17T06:04:51.280Z,3.23
2023-05-17T06:07:18.584Z,3.53
2023-05-17T06:09:45.504Z,4.30
2023-05-17T06:12:12.454Z,4.17
2023-05-17T06:14:39.310Z,3.20
2023-05-17T06:17:06.874Z,3.33
2023-05-17T06:19:34.003Z,4.60
2023-05-17T06:22:01.012Z,4.27
2023-05-17T06:24:27.900Z,4.03
2023-05-17T06:26:54.738Z,3.63
2023-05-17T06:29:21.678Z,4.47
2023-05-17T06:31:48.554Z,4.30
2023-05-17T06:34:15.454Z,4.60
2023-05-17T06:36:42.562Z,4.17
2023-05-17T06:39:09.445Z,3.80
2023-05-17T06:41:36.395Z,4.90
2023-05-17T06:44:03.301Z,4.40
2023-05-17T06:46:30.185Z,4.57
2023-05-17T06:48:57.289Z,4.10
2023-05-17T06:51:24.312Z,4.20
2023-05-17T06:53:51.174Z,5.23
2023-05-17T06:56:18.063Z,4.20
2023-05-17T06:58:44.955Z,4.43
2023-05-17T07:01:13.127Z,3.57
2023-05-17T07:03:40.190Z,4.40
2023-05-17T07:06:07.526Z,4.60
2023-05-17T07:08:34.385Z,5.23
2023-05-17T07:11:01.574Z,6.13
2023-05-17T07:13:28.465Z,3.30
2023-05-17T07:15:55.370Z,4.30
2023-05-17T07:18:22.315Z,3.17
2023-05-17T07:20:49.214Z,4.00
2023-05-17T07:23:18.637Z,4.10
2023-05-17T07:25:46.550Z,4.80
2023-05-17T07:28:13.417Z,4.30
2023-05-17T07:30:40.318Z,3.77
2023-05-17T07:33:07.275Z,4.37
2023-05-17T07:35:34.243Z,4.87
2023-05-17T07:38:01.207Z,4.17
2023-05-17T07:40:28.067Z,4.33
2023-05-17T07:42:54.975Z,3.90
2023-05-17T07:45:21.891Z,3.63
2023-05-17T07:47:48.826Z,4.10
2023-05-17T07:50:15.758Z,3.23
2023-05-17T07:52:42.736Z,3.43
2023-05-17T07:55:10.232Z,3.37
2023-05-17T07:57:37.228Z,3.67
2023-05-17T08:00:04.613Z,3.40
2023-05-17T08:02:39.028Z,3.63
2023-05-17T08:05:06.452Z,3.20
2023-05-17T08:07:33.384Z,2.90
2023-05-17T08:10:00.258Z,3.40
2023-05-17T08:12:27.141Z,4.00
2023-05-17T08:14:54.005Z,3.70
2023-05-17T08:17:20.906Z,3.23
2023-05-17T08:19:47.828Z,2.90
2023-05-17T08:22:15.964Z,3.50
2023-05-17T08:24:45.132Z,3.27
2023-05-17T08:27:14.840Z,3.97
2023-05-17T08:29:41.760Z,4.17
2023-05-17T08:32:08.651Z,3.40
2023-05-17T08:34:35.764Z,3.00
2023-05-17T08:37:02.799Z,2.50
2023-05-17T08:39:29.692Z,3.70
2023-05-17T08:41:59.852Z,3.70
2023-05-17T08:44:28.691Z,2.87
2023-05-17T08:46:56.887Z,3.27
2023-05-17T08:49:26.045Z,3.20
2023-05-17T08:51:54.904Z,3.53
2023-05-17T08:54:22.942Z,3.53
2023-05-17T08:56:54.067Z,3.13
2023-05-17T08:59:22.184Z,3.40
2023-05-17T09:01:51.688Z,3.20
2023-05-17T09:04:19.017Z,3.40
2023-05-17T09:06:46.062Z,3.00
2023-05-17T09:09:13.011Z,2.33
2023-05-17T09:11:40.019Z,2.90
2023-05-17T09:14:07.851Z,3.50
2023-05-17T09:16:37.518Z,2.67
2023-05-17T09:19:06.534Z,3.10
2023-05-17T09:21:34.447Z,3.33
2023-05-17T09:26:42.328Z,3.80
2023-05-17T09:29:13.921Z,3.40
2023-05-17T09:31:42.135Z,2.90
2023-05-17T09:34:09.706Z,2.70
2023-05-17T09:36:38.020Z,4.13
2023-05-17T09:39:10.814Z,3.30
2023-05-17T09:41:47.369Z,2.70
2023-05-17T09:44:15.587Z,5.03
2023-05-17T09:46:48.052Z,3.30
2023-05-17T09:49:17.297Z,3.27
2023-05-17T09:51:47.750Z,2.97
2023-05-17T09:54:15.033Z,3.47
2023-05-17T09:56:42.209Z,2.93
2023-05-17T09:59:16.921Z,2.83
2023-05-17T10:01:45.785Z,3.10
2023-05-17T10:04:13.956Z,3.63
2023-05-17T10:06:49.865Z,3.10
2023-05-17T10:09:21.902Z,3.00
2023-05-17T10:11:50.889Z,3.33
2023-05-17T10:14:23.684Z,3.30
2023-05-17T10:16:52.460Z,4.10
2023-05-17T10:19:21.491Z,2.90
2023-05-17T10:21:50.528Z,3.10
2023-05-17T10:24:17.835Z,2.93
2023-05-17T10:26:45.721Z,3.70
2023-05-17T10:29:12.914Z,3.60
2023-05-17T10:31:43.699Z,3.50
2023-05-17T10:34:12.111Z,4.27
2023-05-17T10:36:40.834Z,4.20
2023-05-17T10:39:10.536Z,3.43
2023-05-17T10:41:42.515Z,3.50
2023-05-17T10:44:14.102Z,3.33
2023-05-17T10:46:41.249Z,3.20
2023-05-17T10:49:08.824Z,4.90
2023-05-17T10:51:38.027Z,3.20
2023-05-17T10:54:10.011Z,3.23
2023-05-17T10:57:06.459Z,3.27
2023-05-17T10:59:35.763Z,2.50
2023-05-17T11:02:10.327Z,3.10
2023-05-17T11:04:42.733Z,3.53
2023-05-17T11:07:29.703Z,3.33
2023-05-17T11:10:11.819Z,3.13
2023-05-17T11:12:43.986Z,3.33
2023-05-17T11:15:12.624Z,2.60
2023-05-17T11:17:54.904Z,3.80
2023-05-17T11:20:25.077Z,3.87
2023-05-17T11:23:00.693Z,3.77
2023-05-17T11:25:38.286Z,4.17
2023-05-17T11:28:23.478Z,3.97
2023-05-17T11:30:54.095Z,3.70
2023-05-17T11:33:38.738Z,4.60
2023-05-17T11:36:13.659Z,3.40
2023-05-17T11:38:40.594Z,3.60
2023-05-17T11:41:26.960Z,3.40
2023-05-17T11:43:54.659Z,4.50
2023-05-17T11:46:24.286Z,3.57
2023-05-17T11:48:52.815Z,3.67
2023-05-17T11:51:23.649Z,4.17
2023-05-17T11:53:55.678Z,3.37
2023-05-17T11:56:35.738Z,2.63
2023-05-17T11:59:10.459Z,3.43
2023-05-17T12:01:47.588Z,3.40
2023-05-17T12:04:14.981Z,5.27
2023-05-17T12:06:42.747Z,4.33
2023-05-17T12:09:11.028Z,3.93
2023-05-17T12:11:41.065Z,3.73
2023-05-17T12:14:08.123Z,3.27
2023-05-17T12:16:37.185Z,4.27
2023-05-17T12:19:04.329Z,3.13
2023-05-17T12:21:31.432Z,2.97
2023-05-17T12:23:58.354Z,3.33
2023-05-17T12:26:25.340Z,3.20
2023-05-17T12:28:57.785Z,2.80
2023-05-17T12:31:36.869Z,3.27
2023-05-17T12:34:06.231Z,4.00
2023-05-17T12:36:34.237Z,3.50
2023-05-17T12:39:01.816Z,3.67
2023-05-17T12:41:30.114Z,3.20
2023-05-17T12:44:13.852Z,3.87
2023-05-17T12:46:43.288Z,3.60
2023-05-17T12:49:12.075Z,3.60
2023-05-17T12:51:44.491Z,3.13
2023-05-17T12:54:16.522Z,3.40
2023-05-17T12:56:46.818Z,4.10
2023-05-17T12:59:18.517Z,3.93
2023-05-17T13:01:46.801Z,3.60
2023-05-17T13:04:15.024Z,3.73
2023-05-17T13:06:50.121Z,3.40
2023-05-17T13:09:18.841Z,3.20
2023-05-17T13:11:52.423Z,4.10
2023-05-17T13:14:38.946Z,3.90
2023-05-17T13:17:08.615Z,2.90
2023-05-17T13:19:36.595Z,3.30
2023-05-17T13:22:05.326Z,3.77
2023-05-17T13:24:35.505Z,3.77
2023-05-17T13:27:03.199Z,3.83
2023-05-17T13:29:38.867Z,3.80
2023-05-17T13:32:08.666Z,3.60
2023-05-17T13:34:36.283Z,3.97
2023-05-17T13:37:04.456Z,2.80
2023-05-17T13:39:31.431Z,3.37
2023-05-17T13:41:59.240Z,3.80
2023-05-17T13:44:26.682Z,3.97
2023-05-17T13:46:53.579Z,4.00
2023-05-17T13:49:21.148Z,4.03
2023-05-17T13:51:48.197Z,4.03
2023-05-17T13:54:15.168Z,3.40
2023-05-17T13:56:42.075Z,3.13
2023-05-17T13:59:09.047Z,3.13
2023-05-17T14:01:35.969Z,3.90
2023-05-17T14:04:02.998Z,3.80
2023-05-17T14:06:30.033Z,3.20
2023-05-17T14:08:59.421Z,3.83
2023-05-17T14:11:26.608Z,3.00
2023-05-17T14:13:53.568Z,4.23
2023-05-17T14:16:22.458Z,4.63
2023-05-17T14:18:50.134Z,3.73
2023-05-17T14:21:17.376Z,3.03
2023-05-17T14:23:44.310Z,3.60
2023-05-17T14:26:12.036Z,4.10
2023-05-17T14:28:39.373Z,3.83
2023-05-17T14:31:07.509Z,3.27
2023-05-17T14:33:34.676Z,3.87
2023-05-17T14:36:01.804Z,3.63
2023-05-17T14:38:28.684Z,3.20
2023-05-17T14:40:55.927Z,3.30
2023-05-17T14:43:23.589Z,3.63
2023-05-17T14:45:53.377Z,4.07
2023-05-17T14:48:20.706Z,3.10
2023-05-17T14:50:47.757Z,3.53
2023-05-17T14:53:14.726Z,3.00
2023-05-17T14:55:42.130Z,4.07
2023-05-17T14:58:09.244Z,3.03
2023-05-17T15:00:36.346Z,3.90
2023-05-17T15:03:03.410Z,4.40
2023-05-17T15:05:30.693Z,4.13
2023-05-17T15:07:58.124Z,4.50
2023-05-17T15:10:25.035Z,3.90
2023-05-17T15:12:52.645Z,4.70
2023-05-17T15:15:22.315Z,3.80
2023-05-17T15:17:49.278Z,4.00
2023-05-17T15:20:16.351Z,3.30
2023-05-17T15:22:43.319Z,3.80
2023-05-17T15:25:10.616Z,3.23
2023-05-17T15:27:37.766Z,3.50
2023-05-17T15:30:05.159Z,3.40
2023-05-17T15:32:34.036Z,3.43
2023-05-17T15:35:01.196Z,3.80
2023-05-17T15:37:28.486Z,3.20
2023-05-17T15:39:55.390Z,3.60
2023-05-17T15:42:22.304Z,3.27
2023-05-17T15:44:49.179Z,4.20
2023-05-17T15:47:16.300Z,3.50
2023-05-17T15:49:43.230Z,3.70
2023-05-17T15:52:10.329Z,3.10
2023-05-17T15:54:37.237Z,4.20
2023-05-17T15:57:04.402Z,3.60
2023-05-17T15:59:31.329Z,4.23
2023-05-17T16:01:58.211Z,4.13
2023-05-17T16:04:25.176Z,3.63
2023-05-17T16:06:52.313Z,3.40
2023-05-17T16:09:19.395Z,3.57
2023-05-17T16:11:46.578Z,3.43
2023-05-17T16:14:13.756Z,3.60
2023-05-17T16:16:40.765Z,3.70
2023-05-17T16:19:10.121Z,3.60
2023-05-17T16:21:37.350Z,3.97
2023-05-17T16:24:06.663Z,3.40
2023-05-17T16:26:35.648Z,3.43
2023-05-17T16:29:02.489Z,4.33
2023-05-17T16:31:29.480Z,4.73
2023-05-17T16:33:56.640Z,3.40
2023-05-17T16:36:24.645Z,4.47
2023-05-17T16:38:52.743Z,4.30
2023-05-17T16:41:19.700Z,3.63
2023-05-17T16:43:48.012Z,4.37
2023-05-17T16:46:14.899Z,3.40
2023-05-17T16:48:42.030Z,3.23
2023-05-17T16:51:08.983Z,3.80
2023-05-17T16:53:35.925Z,3.63
2023-05-17T16:56:02.963Z,3.70
2023-05-17T16:58:30.111Z,3.33
2023-05-17T17:00:57.614Z,3.60
2023-05-17T17:03:24.728Z,3.97
2023-05-17T17:05:51.763Z,4.27
2023-05-17T17:08:18.739Z,3.83
2023-05-17T17:10:45.786Z,3.67
2023-05-17T17:13:12.698Z,3.30
2023-05-17T17:15:39.852Z,2.87
2023-05-17T17:18:07.234Z,3.43
2023-05-17T17:20:34.149Z,3.77
2023-05-17T17:23:01.169Z,3.57
2023-05-17T17:25:28.299Z,3.63
2023-05-17T17:27:55.366Z,4.57
2023-05-17T17:30:22.427Z,3.93
2023-05-17T17:32:52.303Z,3.83
2023-05-17T17:35:19.452Z,4.17
2023-05-17T17:37:46.464Z,4.10
2023-05-17T17:40:33.661Z,4.10
2023-05-17T17:43:00.580Z,5.03
2023-05-17T17:45:27.576Z,4.37
2023-05-17T17:47:54.512Z,3.70
2023-05-17T17:50:22.063Z,3.20
2023-05-17T17:52:50.728Z,4.47
2023-05-17T17:55:17.644Z,4.90
2023-05-17T17:57:44.589Z,3.70
2023-05-17T18:00:13.258Z,4.87
2023-05-17T18:02:40.241Z,3.80
2023-05-17T18:05:07.519Z,3.93
2023-05-17T18:07:34.565Z,6.27
2023-05-17T18:10:02.186Z,6.03
2023-05-17T18:12:29.588Z,5.57
2023-05-17T18:14:56.527Z,11.50
2023-05-17T18:17:23.552Z,8.80
2023-05-17T18:19:50.607Z,8.00
2023-05-17T18:22:17.712Z,5.90
2023-05-17T18:24:45.732Z,5.07
2023-05-17T18:27:15.492Z,5.80
2023-05-17T18:29:42.983Z,7.23
2023-05-17T18:32:10.119Z,6.13
2023-05-17T18:34:37.227Z,5.20
2023-05-17T18:37:05.149Z,7.30
2023-05-17T18:39:32.055Z,5.20
2023-05-17T18:41:59.395Z,4.93
2023-05-17T18:44:26.454Z,4.50
2023-05-17T18:46:54.227Z,4.00
2023-05-17T18:49:21.623Z,5.57
2023-05-17T18:51:48.602Z,4.57
2023-05-17T18:54:15.610Z,5.13
2023-05-17T18:56:42.497Z,5.13
2023-05-17T18:59:09.599Z,5.43
2023-05-17T19:01:37.158Z,4.23
2023-05-17T19:04:04.400Z,4.77
2023-05-17T19:06:32.032Z,5.10
2023-05-17T19:08:59.846Z,6.20
2023-05-17T19:11:28.878Z,5.27
2023-05-17T19:13:56.240Z,4.57
2023-05-17T19:16:23.177Z,4.50
2023-05-17T19:18:50.455Z,3.87
2023-05-17T19:21:17.687Z,4.90
2023-05-17T19:23:44.902Z,4.10
2023-05-17T19:26:12.144Z,3.47
2023-05-17T19:28:40.181Z,3.40
2023-05-17T19:31:08.569Z,4.30
2023-05-17T19:33:37.885Z,4.60
2023-05-17T19:36:04.960Z,4.40
2023-05-17T19:38:33.567Z,4.30
2023-05-17T19:41:01.747Z,4.23
2023-05-17T19:43:28.826Z,3.57
2023-05-17T19:45:55.985Z,3.60
2023-05-17T19:48:24.445Z,3.30
2023-05-17T19:50:51.747Z,3.53
2023-05-17T19:53:18.775Z,3.80
2023-05-17T19:55:46.003Z,4.37
2023-05-17T19:58:12.887Z,3.50
2023-05-17T20:00:39.864Z,3.63
2023-05-17T20:03:06.889Z,3.90
2023-05-17T20:05:34.104Z,3.43
2023-05-17T20:08:02.841Z,4.00
2023-05-17T20:10:32.672Z,4.30
2023-05-17T20:12:59.916Z,4.37
2023-05-17T20:15:26.979Z,5.13
2023-05-17T20:17:54.028Z,4.37
2023-05-17T20:20:21.013Z,5.00
2023-05-17T20:22:48.498Z,5.70
2023-05-17T20:25:15.447Z,4.80
2023-05-17T20:27:42.391Z,4.20
2023-05-17T20:30:09.679Z,4.40
2023-05-17T20:32:36.816Z,5.20
2023-05-17T20:35:03.902Z,4.40
2023-05-17T20:37:30.975Z,4.30
2023-05-17T20:40:00.472Z,5.37
2023-05-17T20:42:28.435Z,4.30
2023-05-17T20:44:55.832Z,6.00
2023-05-17T20:47:23.085Z,6.00
2023-05-17T20:49:50.545Z,7.10
2023-05-17T20:52:27.756Z,5.73
2023-05-17T20:54:58.614Z,6.43
2023-05-17T20:57:26.013Z,6.70
2023-05-17T20:59:53.234Z,5.50
2023-05-17T21:02:22.652Z,6.00
2023-05-17T21:04:49.624Z,4.50
2023-05-17T21:07:17.677Z,5.20
2023-05-17T21:09:44.612Z,4.50
2023-05-17T21:12:11.670Z,5.20
2023-05-17T21:14:38.588Z,5.50
2023-05-17T21:17:05.731Z,3.77
2023-05-17T21:19:32.827Z,4.20
2023-05-17T21:21:59.797Z,4.30
2023-05-17T21:24:26.735Z,3.47
2023-05-17T21:26:53.620Z,3.70
2023-05-17T21:29:20.669Z,4.23
2023-05-17T21:31:47.635Z,4.20
2023-05-17T21:34:14.562Z,6.00
2023-05-17T21:36:41.537Z,5.93
2023-05-17T21:39:08.413Z,6.60
2023-05-17T21:41:35.441Z,6.17
2023-05-17T21:44:02.391Z,5.20
2023-05-17T21:46:29.348Z,6.63
2023-05-17T21:48:56.306Z,5.13
2023-05-17T21:51:23.296Z,4.70
2023-05-17T21:53:53.007Z,8.33
2023-05-17T21:56:19.955Z,7.30
2023-05-17T21:58:46.870Z,6.90
2023-05-17T22:01:13.970Z,9.03
2023-05-17T22:03:41.077Z,12.30
2023-05-17T22:06:08.069Z,11.40
2023-05-17T22:08:35.068Z,9.30
2023-05-17T22:11:02.681Z,12.13
2023-05-17T22:13:32.901Z,10.30
2023-05-17T22:15:59.910Z,10.10
2023-05-17T22:18:32.269Z,7.23
2023-05-17T22:20:59.615Z,8.23
2023-05-17T22:23:26.769Z,8.53
2023-05-17T22:25:53.737Z,7.90
2023-05-17T22:28:20.639Z,6.60
2023-05-17T22:30:48.825Z,7.47
2023-05-17T22:33:15.802Z,6.53
2023-05-17T22:35:42.652Z,7.47
2023-05-17T22:38:09.645Z,7.37
2023-05-17T22:40:36.647Z,6.93
2023-05-17T22:43:03.595Z,8.33
2023-05-17T22:45:33.504Z,6.97
2023-05-17T22:48:03.209Z,7.67
2023-05-17T22:50:34.775Z,7.80
2023-05-17T22:53:01.777Z,7.33
2023-05-17T22:55:29.002Z,7.90
2023-05-17T22:57:56.612Z,7.30
2023-05-17T23:00:24.399Z,7.23
2023-05-17T23:02:51.389Z,6.77
2023-05-17T23:05:18.747Z,7.27
2023-05-17T23:07:47.631Z,7.87
2023-05-17T23:10:15.674Z,7.10
2023-05-17T23:12:42.669Z,5.87
2023-05-17T23:15:10.686Z,6.23
2023-05-17T23:17:39.195Z,5.63
2023-05-17T23:20:13.228Z,5.47
2023-05-17T23:22:40.294Z,4.87
2023-05-17T23:25:07.585Z,5.20
2023-05-17T23:27:35.589Z,5.20
2023-05-17T23:30:03.347Z,5.23
2023-05-17T23:32:34.176Z,4.73
2023-05-17T23:35:05.104Z,5.50
2023-05-17T23:37:33.736Z,5.60
2023-05-17T23:40:00.639Z,6.60
2023-05-17T23:42:29.323Z,4.90
2023-05-17T23:44:56.280Z,4.93
2023-05-17T23:47:23.364Z,4.50
2023-05-17T23:49:50.358Z,4.50
2023-05-17T23:52:19.307Z,4.20
2023-05-17T23:54:47.103Z,4.20
2023-05-17T23:57:14.332Z,5.40
2023-05-17T23:59:41.269Z,4.63
